NSZ3662 EKCH-LEAL
Flight info
| Callsign | NSZ3662 |
|---|---|
| Flight time | 3h 5m |
| Altitude | 36000 |
| Route | LANGO2A LANGO M611 ALASA DCT GISEB DCT NIK DCT CIV/N0455F370 N872 MEDIL DCT KOVIN DCT DUCRA UM728 RESMI UN857 DISAK DCT DIRMO DCT GUERE DCT EVPOK DCT AGN DCT ANETO DCT POSSY DCT XIMPE DCT RIMES N860 VLC VLC3N |
| Aircraft | B738/M-SDE2E3GHILRWXY/LB1 |
Departure
| Time | 2026-05-07 10:01 |
|---|---|
| Airport | Copenhagen Kastrup Airport (EKCH) |
Arrival
| Time | 2026-05-07 13:06 |
|---|---|
| Airport | Alicante-Elche Miguel Hernández Airport (LEAL) |
| Time | Latitude | Longitude | Altitude | Speed | Heading |
|---|---|---|---|---|---|
| 2026-05-07 09:49 | 55.62729 | 12.64287 | 19 ft | 0 kts | 304° |
| 2026-05-07 09:50 | 55.62725 | 12.64298 | 19 ft | 2 kts | 304° |
| 2026-05-07 09:50 | 55.62716 | 12.64320 | 19 ft | 2 kts | 325° |
| 2026-05-07 09:50 | 55.62702 | 12.64330 | 19 ft | 2 kts | 353° |
| 2026-05-07 09:51 | 55.62687 | 12.64328 | 19 ft | 2 kts | 20° |
| 2026-05-07 09:51 | 55.62674 | 12.64317 | 19 ft | 2 kts | 24° |
| 2026-05-07 09:51 | 55.62660 | 12.64307 | 19 ft | 2 kts | 23° |
| 2026-05-07 09:51 | 55.62646 | 12.64296 | 19 ft | 2 kts | 23° |
| 2026-05-07 09:52 | 55.62632 | 12.64286 | 18 ft | 2 kts | 26° |
| 2026-05-07 09:52 | 55.62619 | 12.64274 | 18 ft | 2 kts | 28° |
| 2026-05-07 09:52 | 55.62606 | 12.64261 | 18 ft | 2 kts | 32° |
| 2026-05-07 09:52 | 55.62592 | 12.64251 | 18 ft | 2 kts | 355° |
| 2026-05-07 09:53 | 55.62578 | 12.64260 | 17 ft | 2 kts | 317° |
| 2026-05-07 09:53 | 55.62570 | 12.64282 | 17 ft | 2 kts | 296° |
| 2026-05-07 09:53 | 55.62563 | 12.64304 | 17 ft | 2 kts | 304° |
| 2026-05-07 09:53 | 55.62559 | 12.64312 | 17 ft | 0 kts | 303° |
| 2026-05-07 09:55 | 55.62570 | 12.64283 | 17 ft | 4 kts | 298° |
| 2026-05-07 09:55 | 55.62552 | 12.64213 | 17 ft | 9 kts | 194° |
| 2026-05-07 09:55 | 55.62484 | 12.64306 | 16 ft | 15 kts | 128° |
| 2026-05-07 09:56 | 55.62408 | 12.64487 | 17 ft | 20 kts | 126° |
| 2026-05-07 09:56 | 55.62324 | 12.64708 | 16 ft | 22 kts | 122° |
| 2026-05-07 09:56 | 55.62244 | 12.64921 | 16 ft | 20 kts | 123° |
| 2026-05-07 09:56 | 55.62180 | 12.65087 | 16 ft | 12 kts | 139° |
| 2026-05-07 09:57 | 55.62101 | 12.65059 | 16 ft | 15 kts | 212° |
| 2026-05-07 09:57 | 55.61997 | 12.64935 | 16 ft | 20 kts | 216° |
| 2026-05-07 09:57 | 55.61867 | 12.64788 | 16 ft | 23 kts | 213° |
| 2026-05-07 09:57 | 55.61713 | 12.64611 | 16 ft | 28 kts | 213° |
| 2026-05-07 09:58 | 55.61531 | 12.64404 | 16 ft | 32 kts | 213° |
| 2026-05-07 09:58 | 55.61344 | 12.64190 | 16 ft | 33 kts | 213° |
| 2026-05-07 09:58 | 55.61146 | 12.63962 | 16 ft | 33 kts | 213° |
| 2026-05-07 09:58 | 55.60966 | 12.63749 | 17 ft | 28 kts | 213° |
| 2026-05-07 09:59 | 55.60849 | 12.63615 | 16 ft | 15 kts | 212° |
| 2026-05-07 09:59 | 55.60764 | 12.63625 | 16 ft | 12 kts | 134° |
| 2026-05-07 09:59 | 55.60708 | 12.63754 | 16 ft | 14 kts | 124° |
| 2026-05-07 09:59 | 55.60704 | 12.63913 | 16 ft | 12 kts | 46° |
| 2026-05-07 10:00 | 55.60764 | 12.64008 | 16 ft | 16 kts | 41° |
| 2026-05-07 10:00 | 55.61035 | 12.64430 | 16 ft | 85 kts | 40° |
| 2026-05-07 10:00 | 55.61636 | 12.65357 | 16 ft | 141 kts | 41° |
| 2026-05-07 10:00 | 55.62486 | 12.66654 | 247 ft | 167 kts | 39° |
| 2026-05-07 10:01 | 55.63371 | 12.67996 | 791 ft | 174 kts | 41° |
| 2026-05-07 10:01 | 55.64224 | 12.69365 | 1584 ft | 166 kts | 40° |
| 2026-05-07 10:01 | 55.65125 | 12.70775 | 1980 ft | 181 kts | 40° |
| 2026-05-07 10:01 | 55.66125 | 12.72269 | 2261 ft | 202 kts | 39° |
| 2026-05-07 10:02 | 55.67284 | 12.73988 | 2602 ft | 227 kts | 39° |
| 2026-05-07 10:02 | 55.68445 | 12.75998 | 3194 ft | 243 kts | 52° |
| 2026-05-07 10:02 | 55.69227 | 12.78707 | 3901 ft | 254 kts | 73° |
| 2026-05-07 10:02 | 55.69425 | 12.81808 | 4708 ft | 262 kts | 92° |
| 2026-05-07 10:03 | 55.68958 | 12.84965 | 5503 ft | 270 kts | 115° |
| 2026-05-07 10:03 | 55.67830 | 12.87620 | 6310 ft | 275 kts | 137° |
| 2026-05-07 10:03 | 55.66210 | 12.89358 | 7068 ft | 280 kts | 158° |
| 2026-05-07 10:03 | 55.64383 | 12.90515 | 7855 ft | 283 kts | 160° |
| 2026-05-07 10:04 | 55.62472 | 12.91434 | 8545 ft | 289 kts | 174° |
| 2026-05-07 10:04 | 55.60486 | 12.91236 | 9339 ft | 288 kts | 197° |
| 2026-05-07 10:04 | 55.58706 | 12.89781 | 10123 ft | 287 kts | 216° |
| 2026-05-07 10:04 | 55.57182 | 12.87452 | 10520 ft | 302 kts | 227° |
| 2026-05-07 10:05 | 55.55665 | 12.84616 | 10667 ft | 326 kts | 227° |
| 2026-05-07 10:05 | 55.54051 | 12.81673 | 10840 ft | 348 kts | 227° |
| 2026-05-07 10:05 | 55.52535 | 12.78240 | 11306 ft | 357 kts | 240° |
| 2026-05-07 10:05 | 55.51569 | 12.74235 | 11931 ft | 361 kts | 257° |
| 2026-05-07 10:06 | 55.51280 | 12.69853 | 12619 ft | 363 kts | 268° |
| 2026-05-07 10:06 | 55.51148 | 12.65399 | 13223 ft | 369 kts | 267° |
| 2026-05-07 10:06 | 55.50973 | 12.60876 | 13968 ft | 370 kts | 266° |
| 2026-05-07 10:06 | 55.50795 | 12.56372 | 14677 ft | 373 kts | 266° |
| 2026-05-07 10:07 | 55.50620 | 12.51794 | 15355 ft | 376 kts | 266° |
| 2026-05-07 10:07 | 55.50443 | 12.47182 | 16032 ft | 378 kts | 266° |
| 2026-05-07 10:07 | 55.50262 | 12.42543 | 16637 ft | 382 kts | 266° |
| 2026-05-07 10:07 | 55.50081 | 12.37930 | 17278 ft | 384 kts | 266° |
| 2026-05-07 10:08 | 55.49895 | 12.33226 | 17887 ft | 386 kts | 265° |
| 2026-05-07 10:08 | 55.49634 | 12.28498 | 18465 ft | 389 kts | 259° |
| 2026-05-07 10:08 | 55.48918 | 12.23905 | 19019 ft | 392 kts | 248° |
| 2026-05-07 10:08 | 55.47610 | 12.19644 | 19523 ft | 396 kts | 235° |
| 2026-05-07 10:09 | 55.45954 | 12.15789 | 20144 ft | 397 kts | 233° |
| 2026-05-07 10:09 | 55.44293 | 12.11941 | 20562 ft | 402 kts | 234° |
| 2026-05-07 10:09 | 55.42648 | 12.07981 | 21123 ft | 403 kts | 234° |
| 2026-05-07 10:09 | 55.40953 | 12.04010 | 21625 ft | 405 kts | 233° |
| 2026-05-07 10:10 | 55.39266 | 12.00090 | 22096 ft | 407 kts | 233° |
| 2026-05-07 10:10 | 55.37555 | 11.96108 | 22568 ft | 409 kts | 234° |
| 2026-05-07 10:10 | 55.35845 | 11.92130 | 23013 ft | 412 kts | 234° |
| 2026-05-07 10:10 | 55.34118 | 11.88123 | 23452 ft | 414 kts | 233° |
| 2026-05-07 10:11 | 55.32360 | 11.84053 | 23837 ft | 417 kts | 233° |
| 2026-05-07 10:11 | 55.30632 | 11.80058 | 24269 ft | 418 kts | 234° |
| 2026-05-07 10:11 | 55.28853 | 11.75954 | 24675 ft | 420 kts | 234° |
| 2026-05-07 10:11 | 55.27100 | 11.71914 | 24930 ft | 425 kts | 233° |
| 2026-05-07 10:12 | 55.25296 | 11.67762 | 25268 ft | 428 kts | 234° |
| 2026-05-07 10:12 | 55.23598 | 11.63530 | 25717 ft | 428 kts | 238° |
| 2026-05-07 10:12 | 55.22016 | 11.59121 | 26044 ft | 430 kts | 239° |
| 2026-05-07 10:12 | 55.20417 | 11.54670 | 26377 ft | 432 kts | 238° |
| 2026-05-07 10:13 | 55.18779 | 11.50218 | 26719 ft | 434 kts | 238° |
| 2026-05-07 10:13 | 55.17151 | 11.45817 | 27045 ft | 436 kts | 238° |
| 2026-05-07 10:13 | 55.15521 | 11.41410 | 27387 ft | 437 kts | 238° |
| 2026-05-07 10:13 | 55.13864 | 11.36943 | 27701 ft | 438 kts | 238° |
| 2026-05-07 10:14 | 55.12199 | 11.32466 | 28011 ft | 440 kts | 237° |
| 2026-05-07 10:14 | 55.10538 | 11.28012 | 28310 ft | 441 kts | 237° |
| 2026-05-07 10:14 | 55.08863 | 11.23531 | 28562 ft | 443 kts | 237° |
| 2026-05-07 10:14 | 55.07183 | 11.19046 | 28941 ft | 442 kts | 237° |
| 2026-05-07 10:15 | 55.05493 | 11.14544 | 29396 ft | 439 kts | 237° |
| 2026-05-07 10:15 | 55.03842 | 11.10155 | 29712 ft | 440 kts | 237° |
| 2026-05-07 10:15 | 55.02172 | 11.05721 | 30088 ft | 438 kts | 237° |
| 2026-05-07 10:15 | 55.00492 | 11.01270 | 30445 ft | 437 kts | 237° |
| 2026-05-07 10:16 | 54.98828 | 10.96871 | 30788 ft | 437 kts | 237° |
| 2026-05-07 10:16 | 54.97187 | 10.92488 | 31125 ft | 436 kts | 239° |
| 2026-05-07 10:16 | 54.95684 | 10.87920 | 31453 ft | 435 kts | 243° |
| 2026-05-07 10:16 | 54.94447 | 10.83167 | 31768 ft | 434 kts | 250° |
| 2026-05-07 10:17 | 54.93552 | 10.78132 | 32095 ft | 433 kts | 255° |
| 2026-05-07 10:17 | 54.92795 | 10.73082 | 32395 ft | 432 kts | 255° |
| 2026-05-07 10:17 | 54.92018 | 10.68027 | 32470 ft | 438 kts | 255° |
| 2026-05-07 10:17 | 54.91227 | 10.62979 | 32813 ft | 436 kts | 255° |
| 2026-05-07 10:18 | 54.90434 | 10.57866 | 33118 ft | 435 kts | 256° |
| 2026-05-07 10:18 | 54.89656 | 10.52811 | 33354 ft | 436 kts | 256° |
| 2026-05-07 10:18 | 54.88872 | 10.47708 | 33659 ft | 435 kts | 256° |
| 2026-05-07 10:18 | 54.88096 | 10.42674 | 33952 ft | 434 kts | 256° |
| 2026-05-07 10:19 | 54.87314 | 10.37600 | 34208 ft | 434 kts | 256° |
| 2026-05-07 10:19 | 54.86543 | 10.32606 | 34468 ft | 433 kts | 255° |
| 2026-05-07 10:19 | 54.85755 | 10.27512 | 34731 ft | 433 kts | 255° |
| 2026-05-07 10:19 | 54.84980 | 10.22514 | 34960 ft | 433 kts | 255° |
| 2026-05-07 10:20 | 54.84199 | 10.17487 | 35177 ft | 433 kts | 255° |
| 2026-05-07 10:20 | 54.83411 | 10.12428 | 35423 ft | 433 kts | 255° |
| 2026-05-07 10:20 | 54.82628 | 10.07412 | 35645 ft | 433 kts | 255° |
| 2026-05-07 10:20 | 54.81788 | 10.02451 | 35871 ft | 433 kts | 251° |
| 2026-05-07 10:21 | 54.80623 | 9.97628 | 36072 ft | 433 kts | 243° |
| 2026-05-07 10:21 | 54.77092 | 9.89210 | 36104 ft | 438 kts | 227° |
| 2026-05-07 10:22 | 54.72945 | 9.81510 | 36074 ft | 435 kts | 230° |
| 2026-05-07 10:22 | 54.68953 | 9.73774 | 36074 ft | 432 kts | 229° |
| 2026-05-07 10:23 | 54.64910 | 9.66124 | 36076 ft | 436 kts | 229° |
| 2026-05-07 10:23 | 54.60805 | 9.58392 | 36075 ft | 436 kts | 229° |
| 2026-05-07 10:24 | 54.56714 | 9.50730 | 36075 ft | 435 kts | 229° |
| 2026-05-07 10:24 | 54.52629 | 9.43112 | 36075 ft | 435 kts | 229° |
| 2026-05-07 10:25 | 54.48524 | 9.35485 | 36075 ft | 435 kts | 229° |
| 2026-05-07 10:25 | 54.44432 | 9.27911 | 36075 ft | 436 kts | 227° |
| 2026-05-07 10:26 | 54.40322 | 9.20328 | 36075 ft | 436 kts | 228° |
| 2026-05-07 10:26 | 54.36180 | 9.12713 | 36075 ft | 438 kts | 228° |
| 2026-05-07 10:27 | 54.32020 | 9.05087 | 36075 ft | 438 kts | 228° |
| 2026-05-07 10:27 | 54.27877 | 8.97519 | 36075 ft | 438 kts | 228° |
| 2026-05-07 10:28 | 54.23698 | 8.89907 | 36075 ft | 437 kts | 228° |
| 2026-05-07 10:28 | 54.19576 | 8.82424 | 36056 ft | 436 kts | 228° |
| 2026-05-07 10:29 | 54.15414 | 8.74893 | 36048 ft | 434 kts | 227° |
| 2026-05-07 10:29 | 54.11285 | 8.67443 | 36049 ft | 436 kts | 227° |
| 2026-05-07 10:30 | 54.05022 | 8.56190 | 36048 ft | 437 kts | 227° |
| 2026-05-07 10:30 | 54.00844 | 8.48711 | 36048 ft | 436 kts | 227° |
| 2026-05-07 10:31 | 53.96692 | 8.41302 | 36048 ft | 436 kts | 227° |
| 2026-05-07 10:31 | 53.92509 | 8.33860 | 36048 ft | 437 kts | 226° |
| 2026-05-07 10:32 | 53.88331 | 8.26452 | 36048 ft | 437 kts | 226° |
| 2026-05-07 10:32 | 53.84118 | 8.19006 | 36048 ft | 438 kts | 227° |
| 2026-05-07 10:33 | 53.79913 | 8.11594 | 36048 ft | 439 kts | 227° |
| 2026-05-07 10:33 | 53.75669 | 8.04138 | 36048 ft | 440 kts | 227° |
| 2026-05-07 10:34 | 53.71441 | 7.96734 | 36048 ft | 438 kts | 227° |
| 2026-05-07 10:34 | 53.67240 | 7.89400 | 36048 ft | 436 kts | 227° |
| 2026-05-07 10:35 | 53.63014 | 7.82042 | 36048 ft | 436 kts | 226° |
| 2026-05-07 10:35 | 53.58811 | 7.74750 | 36048 ft | 436 kts | 226° |
| 2026-05-07 10:36 | 53.54585 | 7.67440 | 36048 ft | 438 kts | 226° |
| 2026-05-07 10:36 | 53.50372 | 7.60172 | 36048 ft | 438 kts | 226° |
| 2026-05-07 10:37 | 53.46134 | 7.52886 | 36048 ft | 438 kts | 226° |
| 2026-05-07 10:37 | 53.41878 | 7.45590 | 36074 ft | 437 kts | 226° |
| 2026-05-07 10:38 | 53.37627 | 7.38324 | 36075 ft | 438 kts | 226° |
| 2026-05-07 10:38 | 53.33366 | 7.31065 | 36075 ft | 438 kts | 226° |
| 2026-05-07 10:39 | 53.29116 | 7.23847 | 36074 ft | 438 kts | 226° |
| 2026-05-07 10:39 | 53.24850 | 7.16622 | 36075 ft | 440 kts | 226° |
| 2026-05-07 10:40 | 53.20554 | 7.09368 | 36074 ft | 438 kts | 226° |
| 2026-05-07 10:40 | 53.16316 | 7.02235 | 36075 ft | 437 kts | 225° |
| 2026-05-07 10:41 | 53.12031 | 6.95043 | 36075 ft | 437 kts | 225° |
| 2026-05-07 10:41 | 53.07774 | 6.87921 | 36075 ft | 437 kts | 225° |
| 2026-05-07 10:42 | 53.03498 | 6.80787 | 36075 ft | 437 kts | 225° |
| 2026-05-07 10:42 | 52.99211 | 6.73658 | 36074 ft | 437 kts | 225° |
| 2026-05-07 10:43 | 52.94892 | 6.66496 | 36075 ft | 439 kts | 225° |
| 2026-05-07 10:43 | 52.90575 | 6.59357 | 36075 ft | 439 kts | 225° |
| 2026-05-07 10:44 | 52.86277 | 6.52274 | 36075 ft | 439 kts | 225° |
| 2026-05-07 10:44 | 52.81963 | 6.45185 | 36075 ft | 439 kts | 225° |
| 2026-05-07 10:45 | 52.77634 | 6.38092 | 36075 ft | 439 kts | 225° |
| 2026-05-07 10:45 | 52.73300 | 6.31011 | 36075 ft | 439 kts | 225° |
| 2026-05-07 10:46 | 52.68991 | 6.23992 | 36075 ft | 438 kts | 225° |
| 2026-05-07 10:46 | 52.64663 | 6.16963 | 36075 ft | 438 kts | 225° |
| 2026-05-07 10:47 | 52.60324 | 6.09937 | 36075 ft | 439 kts | 225° |
| 2026-05-07 10:47 | 52.55971 | 6.02909 | 36075 ft | 439 kts | 225° |
| 2026-05-07 10:48 | 52.51621 | 5.95907 | 36075 ft | 439 kts | 225° |
| 2026-05-07 10:48 | 52.47279 | 5.88938 | 36075 ft | 439 kts | 225° |
| 2026-05-07 10:49 | 52.42949 | 5.82008 | 36075 ft | 439 kts | 225° |
| 2026-05-07 10:49 | 52.38578 | 5.75032 | 36075 ft | 439 kts | 225° |
| 2026-05-07 10:50 | 52.34209 | 5.68081 | 36075 ft | 439 kts | 225° |
| 2026-05-07 10:50 | 52.29843 | 5.61155 | 36075 ft | 440 kts | 225° |
| 2026-05-07 10:51 | 52.25474 | 5.54245 | 36075 ft | 439 kts | 225° |
| 2026-05-07 10:51 | 52.21085 | 5.47322 | 36075 ft | 438 kts | 225° |
| 2026-05-07 10:52 | 52.16746 | 5.40499 | 36075 ft | 437 kts | 225° |
| 2026-05-07 10:52 | 52.12371 | 5.33637 | 36047 ft | 438 kts | 224° |
| 2026-05-07 10:53 | 52.07995 | 5.26794 | 36048 ft | 438 kts | 224° |
| 2026-05-07 10:53 | 52.03616 | 5.19969 | 36074 ft | 439 kts | 224° |
| 2026-05-07 10:54 | 51.99205 | 5.13110 | 36075 ft | 439 kts | 224° |
| 2026-05-07 10:54 | 51.94782 | 5.06254 | 36075 ft | 439 kts | 224° |
| 2026-05-07 10:55 | 51.90340 | 4.99586 | 36074 ft | 439 kts | 220° |
| 2026-05-07 10:55 | 51.85362 | 4.93855 | 36075 ft | 440 kts | 215° |
| 2026-05-07 10:56 | 51.80342 | 4.88238 | 36075 ft | 440 kts | 216° |
| 2026-05-07 10:56 | 51.75353 | 4.82655 | 36075 ft | 440 kts | 215° |
| 2026-05-07 10:57 | 51.70314 | 4.77061 | 36075 ft | 439 kts | 215° |
| 2026-05-07 10:57 | 51.65297 | 4.71510 | 36075 ft | 438 kts | 215° |
| 2026-05-07 10:58 | 51.60284 | 4.65984 | 36075 ft | 439 kts | 215° |
| 2026-05-07 10:58 | 51.55254 | 4.60456 | 36075 ft | 439 kts | 215° |
| 2026-05-07 10:59 | 51.50238 | 4.54960 | 36075 ft | 439 kts | 215° |
| 2026-05-07 10:59 | 51.45197 | 4.49452 | 36075 ft | 439 kts | 215° |
| 2026-05-07 11:00 | 51.40191 | 4.43998 | 36075 ft | 439 kts | 215° |
| 2026-05-07 11:00 | 51.35148 | 4.38519 | 36075 ft | 439 kts | 215° |
| 2026-05-07 11:01 | 51.30131 | 4.33083 | 36075 ft | 439 kts | 214° |
| 2026-05-07 11:01 | 51.25096 | 4.27643 | 36075 ft | 439 kts | 214° |
| 2026-05-07 11:02 | 51.20043 | 4.22201 | 36074 ft | 439 kts | 214° |
| 2026-05-07 11:02 | 51.14734 | 4.17523 | 36076 ft | 439 kts | 203° |
| 2026-05-07 11:03 | 51.09025 | 4.14086 | 36075 ft | 440 kts | 202° |
| 2026-05-07 11:03 | 51.03319 | 4.10569 | 36075 ft | 440 kts | 202° |
| 2026-05-07 11:04 | 50.97614 | 4.07118 | 36075 ft | 440 kts | 201° |
| 2026-05-07 11:04 | 50.91927 | 4.03706 | 36075 ft | 440 kts | 201° |
| 2026-05-07 11:05 | 50.86222 | 4.00300 | 36075 ft | 440 kts | 201° |
| 2026-05-07 11:05 | 50.80463 | 3.96878 | 36075 ft | 440 kts | 201° |
| 2026-05-07 11:06 | 50.74672 | 3.93450 | 36075 ft | 440 kts | 201° |
| 2026-05-07 11:06 | 50.68897 | 3.90041 | 36075 ft | 441 kts | 201° |
| 2026-05-07 11:07 | 50.63124 | 3.86644 | 36075 ft | 441 kts | 201° |
| 2026-05-07 11:07 | 50.57349 | 3.83253 | 36075 ft | 441 kts | 202° |
| 2026-05-07 11:08 | 50.51687 | 3.79476 | 36075 ft | 440 kts | 205° |
| 2026-05-07 11:08 | 50.46124 | 3.75612 | 36075 ft | 440 kts | 204° |
| 2026-05-07 11:09 | 50.40501 | 3.71783 | 36075 ft | 440 kts | 205° |
| 2026-05-07 11:09 | 50.34933 | 3.67995 | 36075 ft | 439 kts | 205° |
| 2026-05-07 11:10 | 50.29342 | 3.64207 | 36075 ft | 440 kts | 204° |
| 2026-05-07 11:10 | 50.23756 | 3.60436 | 36075 ft | 440 kts | 205° |
| 2026-05-07 11:11 | 50.18142 | 3.56657 | 36075 ft | 441 kts | 205° |
| 2026-05-07 11:11 | 50.12517 | 3.52881 | 36075 ft | 441 kts | 205° |
| 2026-05-07 11:12 | 50.06876 | 3.49103 | 36075 ft | 441 kts | 205° |
| 2026-05-07 11:12 | 50.01278 | 3.45365 | 36075 ft | 441 kts | 205° |
| 2026-05-07 11:13 | 49.95679 | 3.41635 | 36075 ft | 441 kts | 205° |
| 2026-05-07 11:13 | 49.90041 | 3.37889 | 36075 ft | 441 kts | 205° |
| 2026-05-07 11:14 | 49.84419 | 3.34164 | 36075 ft | 441 kts | 204° |
| 2026-05-07 11:14 | 49.78752 | 3.30419 | 36075 ft | 441 kts | 204° |
| 2026-05-07 11:15 | 49.73151 | 3.26726 | 36075 ft | 441 kts | 204° |
| 2026-05-07 11:15 | 49.67523 | 3.23025 | 36075 ft | 440 kts | 204° |
| 2026-05-07 11:16 | 49.61926 | 3.19353 | 36075 ft | 439 kts | 204° |
| 2026-05-07 11:16 | 49.56335 | 3.15695 | 36075 ft | 439 kts | 204° |
| 2026-05-07 11:17 | 49.50727 | 3.11994 | 36075 ft | 439 kts | 206° |
| 2026-05-07 11:17 | 49.45493 | 3.07300 | 36075 ft | 438 kts | 214° |
| 2026-05-07 11:18 | 49.40412 | 3.02172 | 36075 ft | 438 kts | 214° |
| 2026-05-07 11:18 | 49.35326 | 2.97098 | 36075 ft | 438 kts | 214° |
| 2026-05-07 11:19 | 49.30274 | 2.92014 | 36075 ft | 438 kts | 214° |
| 2026-05-07 11:19 | 49.25174 | 2.86887 | 36075 ft | 438 kts | 214° |
| 2026-05-07 11:20 | 49.20101 | 2.81791 | 36075 ft | 439 kts | 214° |
| 2026-05-07 11:20 | 49.15002 | 2.76676 | 36075 ft | 440 kts | 214° |
| 2026-05-07 11:21 | 49.09916 | 2.71585 | 36075 ft | 438 kts | 214° |
| 2026-05-07 11:21 | 49.04820 | 2.66496 | 36075 ft | 437 kts | 214° |
| 2026-05-07 11:22 | 48.99760 | 2.61454 | 36075 ft | 438 kts | 214° |
| 2026-05-07 11:22 | 48.94664 | 2.56388 | 36075 ft | 438 kts | 214° |
| 2026-05-07 11:23 | 48.89624 | 2.51390 | 36075 ft | 438 kts | 214° |
| 2026-05-07 11:23 | 48.84504 | 2.46325 | 36075 ft | 438 kts | 214° |
| 2026-05-07 11:24 | 48.79416 | 2.41305 | 36075 ft | 438 kts | 214° |
| 2026-05-07 11:24 | 48.74329 | 2.36297 | 36075 ft | 438 kts | 214° |
| 2026-05-07 11:25 | 48.69230 | 2.31290 | 36075 ft | 439 kts | 214° |
| 2026-05-07 11:25 | 48.64120 | 2.26284 | 36075 ft | 439 kts | 214° |
| 2026-05-07 11:26 | 48.58940 | 2.21400 | 36048 ft | 439 kts | 209° |
| 2026-05-07 11:26 | 48.53278 | 2.18115 | 36065 ft | 440 kts | 194° |
| 2026-05-07 11:27 | 48.47300 | 2.16230 | 36074 ft | 442 kts | 194° |
| 2026-05-07 11:27 | 48.41304 | 2.14225 | 36053 ft | 442 kts | 194° |
| 2026-05-07 11:28 | 48.35337 | 2.12281 | 36048 ft | 441 kts | 193° |
| 2026-05-07 11:28 | 48.29303 | 2.10697 | 36046 ft | 443 kts | 185° |
| 2026-05-07 11:29 | 48.23148 | 2.11294 | 36049 ft | 446 kts | 173° |
| 2026-05-07 11:29 | 48.17057 | 2.12550 | 36048 ft | 445 kts | 174° |
| 2026-05-07 11:30 | 48.10916 | 2.13530 | 36048 ft | 444 kts | 179° |
| 2026-05-07 11:30 | 48.04763 | 2.13745 | 36048 ft | 444 kts | 180° |
| 2026-05-07 11:31 | 47.98653 | 2.14078 | 36048 ft | 444 kts | 179° |
| 2026-05-07 11:31 | 47.92482 | 2.14421 | 36048 ft | 444 kts | 179° |
| 2026-05-07 11:32 | 47.83260 | 2.14946 | 36048 ft | 444 kts | 179° |
| 2026-05-07 11:33 | 47.77133 | 2.15299 | 36048 ft | 444 kts | 179° |
| 2026-05-07 11:33 | 47.70951 | 2.15657 | 36048 ft | 443 kts | 179° |
| 2026-05-07 11:34 | 47.64845 | 2.16011 | 36048 ft | 442 kts | 179° |
| 2026-05-07 11:34 | 47.58714 | 2.16365 | 36048 ft | 442 kts | 179° |
| 2026-05-07 11:35 | 47.52570 | 2.16721 | 36048 ft | 443 kts | 179° |
| 2026-05-07 11:35 | 47.46465 | 2.17073 | 36048 ft | 443 kts | 179° |
| 2026-05-07 11:36 | 47.40346 | 2.17425 | 36048 ft | 443 kts | 179° |
| 2026-05-07 11:36 | 47.34212 | 2.17778 | 36048 ft | 443 kts | 179° |
| 2026-05-07 11:37 | 47.28058 | 2.18130 | 36048 ft | 443 kts | 179° |
| 2026-05-07 11:37 | 47.21967 | 2.18479 | 36047 ft | 442 kts | 180° |
| 2026-05-07 11:38 | 47.15824 | 2.18829 | 36048 ft | 442 kts | 180° |
| 2026-05-07 11:38 | 47.09722 | 2.19172 | 36048 ft | 442 kts | 181° |
| 2026-05-07 11:39 | 47.03637 | 2.18686 | 36048 ft | 440 kts | 187° |
| 2026-05-07 11:39 | 46.97536 | 2.17906 | 36048 ft | 440 kts | 186° |
| 2026-05-07 11:40 | 46.91467 | 2.17213 | 36048 ft | 440 kts | 186° |
| 2026-05-07 11:40 | 46.85388 | 2.16504 | 36048 ft | 440 kts | 186° |
| 2026-05-07 11:41 | 46.79309 | 2.15802 | 36048 ft | 440 kts | 186° |
| 2026-05-07 11:41 | 46.73240 | 2.15105 | 36049 ft | 439 kts | 187° |
| 2026-05-07 11:42 | 46.67167 | 2.14409 | 36048 ft | 436 kts | 187° |
| 2026-05-07 11:42 | 46.61146 | 2.13720 | 36048 ft | 436 kts | 187° |
| 2026-05-07 11:43 | 46.55125 | 2.13033 | 36048 ft | 437 kts | 187° |
| 2026-05-07 11:43 | 46.49085 | 2.12345 | 36048 ft | 437 kts | 187° |
| 2026-05-07 11:44 | 46.43007 | 2.11655 | 36048 ft | 437 kts | 187° |
| 2026-05-07 11:44 | 46.37019 | 2.10977 | 36048 ft | 437 kts | 187° |
| 2026-05-07 11:45 | 46.30989 | 2.10295 | 36048 ft | 437 kts | 187° |
| 2026-05-07 11:45 | 46.24907 | 2.09609 | 36048 ft | 437 kts | 187° |
| 2026-05-07 11:46 | 46.19029 | 2.07913 | 36048 ft | 429 kts | 203° |
| 2026-05-07 11:46 | 46.13891 | 2.03691 | 36040 ft | 426 kts | 217° |
| 2026-05-07 11:47 | 46.09059 | 1.98783 | 36020 ft | 426 kts | 216° |
| 2026-05-07 11:47 | 46.04205 | 1.93969 | 36021 ft | 426 kts | 217° |
| 2026-05-07 11:48 | 45.99358 | 1.89118 | 36021 ft | 426 kts | 217° |
| 2026-05-07 11:48 | 45.94516 | 1.84277 | 36021 ft | 426 kts | 217° |
| 2026-05-07 11:49 | 45.89661 | 1.79428 | 36021 ft | 426 kts | 217° |
| 2026-05-07 11:49 | 45.84798 | 1.74579 | 36021 ft | 426 kts | 217° |
| 2026-05-07 11:50 | 45.79947 | 1.69749 | 36021 ft | 426 kts | 217° |
| 2026-05-07 11:50 | 45.75097 | 1.64931 | 36021 ft | 426 kts | 217° |
| 2026-05-07 11:51 | 45.70258 | 1.60135 | 36021 ft | 425 kts | 217° |
| 2026-05-07 11:51 | 45.65379 | 1.55308 | 36021 ft | 425 kts | 217° |
| 2026-05-07 11:52 | 45.60514 | 1.50504 | 36021 ft | 425 kts | 217° |
| 2026-05-07 11:52 | 45.55663 | 1.45725 | 36021 ft | 425 kts | 217° |
| 2026-05-07 11:53 | 45.50812 | 1.41005 | 36020 ft | 426 kts | 214° |
| 2026-05-07 11:53 | 45.45499 | 1.37279 | 36020 ft | 430 kts | 201° |
| 2026-05-07 11:54 | 45.39671 | 1.35251 | 36021 ft | 432 kts | 196° |
| 2026-05-07 11:54 | 45.33843 | 1.33295 | 36021 ft | 432 kts | 196° |
| 2026-05-07 11:55 | 45.27976 | 1.31345 | 36021 ft | 432 kts | 195° |
| 2026-05-07 11:55 | 45.22146 | 1.29440 | 36021 ft | 431 kts | 196° |
| 2026-05-07 11:56 | 45.16320 | 1.27545 | 36021 ft | 429 kts | 196° |
| 2026-05-07 11:56 | 45.10507 | 1.25663 | 36021 ft | 429 kts | 196° |
| 2026-05-07 11:57 | 45.04693 | 1.23788 | 36021 ft | 429 kts | 196° |
| 2026-05-07 11:57 | 44.98907 | 1.21929 | 36021 ft | 428 kts | 196° |
| 2026-05-07 11:58 | 44.93086 | 1.20062 | 36021 ft | 428 kts | 196° |
| 2026-05-07 11:58 | 44.87316 | 1.18217 | 36021 ft | 429 kts | 196° |
| 2026-05-07 11:59 | 44.81518 | 1.16366 | 36021 ft | 429 kts | 196° |
| 2026-05-07 11:59 | 44.75696 | 1.14512 | 36021 ft | 428 kts | 196° |
| 2026-05-07 12:00 | 44.69907 | 1.12671 | 36021 ft | 427 kts | 195° |
| 2026-05-07 12:00 | 44.64118 | 1.10835 | 36021 ft | 426 kts | 195° |
| 2026-05-07 12:01 | 44.58359 | 1.09013 | 36021 ft | 423 kts | 195° |
| 2026-05-07 12:01 | 44.52646 | 1.07208 | 36021 ft | 423 kts | 195° |
| 2026-05-07 12:02 | 44.46915 | 1.05401 | 36021 ft | 424 kts | 195° |
| 2026-05-07 12:02 | 44.41159 | 1.03591 | 36021 ft | 424 kts | 195° |
| 2026-05-07 12:03 | 44.35425 | 1.01790 | 36021 ft | 424 kts | 195° |
| 2026-05-07 12:03 | 44.29711 | 1.00000 | 36021 ft | 424 kts | 195° |
| 2026-05-07 12:04 | 44.23946 | 0.98197 | 36021 ft | 424 kts | 194° |
| 2026-05-07 12:04 | 44.18250 | 0.96420 | 36021 ft | 425 kts | 194° |
| 2026-05-07 12:05 | 44.12485 | 0.94624 | 36021 ft | 425 kts | 194° |
| 2026-05-07 12:05 | 44.06734 | 0.92836 | 36021 ft | 424 kts | 194° |
| 2026-05-07 12:06 | 44.00998 | 0.91057 | 36021 ft | 424 kts | 194° |
| 2026-05-07 12:06 | 43.95280 | 0.89287 | 36021 ft | 424 kts | 194° |
| 2026-05-07 12:07 | 43.89516 | 0.87506 | 36021 ft | 424 kts | 194° |
| 2026-05-07 12:07 | 43.83766 | 0.85891 | 36021 ft | 425 kts | 193° |
| 2026-05-07 12:08 | 43.77963 | 0.84373 | 36021 ft | 425 kts | 193° |
| 2026-05-07 12:08 | 43.72184 | 0.82830 | 36021 ft | 423 kts | 193° |
| 2026-05-07 12:09 | 43.66436 | 0.81302 | 36021 ft | 421 kts | 193° |
| 2026-05-07 12:09 | 43.60732 | 0.79785 | 36021 ft | 422 kts | 193° |
| 2026-05-07 12:10 | 43.54960 | 0.78252 | 36021 ft | 422 kts | 193° |
| 2026-05-07 12:10 | 43.49255 | 0.76740 | 36126 ft | 421 kts | 193° |
| 2026-05-07 12:11 | 43.43516 | 0.75222 | 36237 ft | 423 kts | 193° |
| 2026-05-07 12:11 | 43.37756 | 0.73699 | 36237 ft | 424 kts | 193° |
| 2026-05-07 12:12 | 43.31963 | 0.72173 | 36194 ft | 424 kts | 193° |
| 2026-05-07 12:12 | 43.26224 | 0.70664 | 36060 ft | 423 kts | 193° |
| 2026-05-07 12:13 | 43.20468 | 0.69153 | 35994 ft | 419 kts | 193° |
| 2026-05-07 12:13 | 43.14753 | 0.67655 | 35994 ft | 420 kts | 193° |
| 2026-05-07 12:14 | 43.09024 | 0.66156 | 35994 ft | 421 kts | 193° |
| 2026-05-07 12:14 | 43.03287 | 0.64658 | 35994 ft | 421 kts | 193° |
| 2026-05-07 12:15 | 42.97584 | 0.63172 | 35994 ft | 421 kts | 193° |
| 2026-05-07 12:15 | 42.91849 | 0.61681 | 35994 ft | 421 kts | 193° |
| 2026-05-07 12:16 | 42.86121 | 0.60194 | 35994 ft | 421 kts | 193° |
| 2026-05-07 12:16 | 42.80367 | 0.58703 | 35994 ft | 421 kts | 193° |
| 2026-05-07 12:17 | 42.74657 | 0.57227 | 35994 ft | 421 kts | 193° |
| 2026-05-07 12:17 | 42.68999 | 0.55287 | 35992 ft | 419 kts | 202° |
| 2026-05-07 12:18 | 42.63716 | 0.52081 | 35994 ft | 418 kts | 206° |
| 2026-05-07 12:18 | 42.58441 | 0.48784 | 35994 ft | 418 kts | 206° |
| 2026-05-07 12:19 | 42.53181 | 0.45471 | 35975 ft | 419 kts | 206° |
| 2026-05-07 12:19 | 42.47941 | 0.42148 | 35992 ft | 418 kts | 206° |
| 2026-05-07 12:20 | 42.42687 | 0.38815 | 35994 ft | 418 kts | 206° |
| 2026-05-07 12:20 | 42.37460 | 0.35498 | 35994 ft | 418 kts | 206° |
| 2026-05-07 12:21 | 42.32181 | 0.32152 | 35994 ft | 418 kts | 206° |
| 2026-05-07 12:21 | 42.26944 | 0.28837 | 35994 ft | 418 kts | 206° |
| 2026-05-07 12:22 | 42.21696 | 0.25521 | 35993 ft | 415 kts | 206° |
| 2026-05-07 12:22 | 42.16532 | 0.22261 | 35994 ft | 413 kts | 206° |
| 2026-05-07 12:23 | 42.11320 | 0.18978 | 35994 ft | 415 kts | 206° |
| 2026-05-07 12:23 | 42.05982 | 0.16160 | 35993 ft | 417 kts | 197° |
| 2026-05-07 12:24 | 42.00238 | 0.14945 | 35969 ft | 420 kts | 188° |
| 2026-05-07 12:24 | 41.94475 | 0.14056 | 35994 ft | 419 kts | 189° |
| 2026-05-07 12:25 | 41.88688 | 0.13139 | 35994 ft | 419 kts | 189° |
| 2026-05-07 12:25 | 41.82936 | 0.12263 | 35974 ft | 420 kts | 189° |
| 2026-05-07 12:26 | 41.77136 | 0.11386 | 35967 ft | 419 kts | 189° |
| 2026-05-07 12:26 | 41.71399 | 0.10527 | 35966 ft | 414 kts | 189° |
| 2026-05-07 12:27 | 41.65732 | 0.09682 | 35967 ft | 408 kts | 189° |
| 2026-05-07 12:27 | 41.60114 | 0.08845 | 35967 ft | 411 kts | 189° |
| 2026-05-07 12:28 | 41.54424 | 0.08001 | 35967 ft | 412 kts | 189° |
| 2026-05-07 12:28 | 41.48763 | 0.07163 | 35967 ft | 411 kts | 189° |
| 2026-05-07 12:29 | 41.43125 | 0.06331 | 35967 ft | 411 kts | 189° |
| 2026-05-07 12:29 | 41.37462 | 0.05496 | 35967 ft | 411 kts | 189° |
| 2026-05-07 12:30 | 41.31775 | 0.04659 | 35967 ft | 411 kts | 189° |
| 2026-05-07 12:30 | 41.26114 | 0.03828 | 35967 ft | 411 kts | 189° |
| 2026-05-07 12:31 | 41.20441 | 0.02995 | 35967 ft | 412 kts | 189° |
| 2026-05-07 12:31 | 41.14749 | 0.02162 | 35967 ft | 413 kts | 189° |
| 2026-05-07 12:32 | 41.09103 | 0.01338 | 35967 ft | 412 kts | 189° |
| 2026-05-07 12:32 | 41.03404 | 0.00505 | 35967 ft | 412 kts | 189° |
| 2026-05-07 12:33 | 40.94899 | -0.00735 | 35967 ft | 412 kts | 189° |
| 2026-05-07 12:33 | 40.89212 | -0.01562 | 35994 ft | 412 kts | 189° |
| 2026-05-07 12:34 | 40.83512 | -0.02390 | 35994 ft | 413 kts | 189° |
| 2026-05-07 12:34 | 40.77823 | -0.03214 | 35994 ft | 412 kts | 189° |
| 2026-05-07 12:35 | 40.72158 | -0.04034 | 35994 ft | 411 kts | 189° |
| 2026-05-07 12:35 | 40.66504 | -0.04850 | 35994 ft | 409 kts | 189° |
| 2026-05-07 12:36 | 40.60873 | -0.05663 | 35994 ft | 410 kts | 189° |
| 2026-05-07 12:36 | 40.55255 | -0.06811 | 35994 ft | 407 kts | 197° |
| 2026-05-07 12:37 | 40.49862 | -0.08900 | 35994 ft | 407 kts | 198° |
| 2026-05-07 12:37 | 40.44445 | -0.10966 | 35994 ft | 407 kts | 198° |
| 2026-05-07 12:38 | 40.39039 | -0.13073 | 35994 ft | 407 kts | 199° |
| 2026-05-07 12:38 | 40.33601 | -0.15203 | 35994 ft | 407 kts | 199° |
| 2026-05-07 12:39 | 40.28206 | -0.17321 | 35994 ft | 407 kts | 199° |
| 2026-05-07 12:39 | 40.22826 | -0.19434 | 35995 ft | 405 kts | 199° |
| 2026-05-07 12:40 | 40.17509 | -0.21520 | 35993 ft | 399 kts | 199° |
| 2026-05-07 12:40 | 40.12205 | -0.23601 | 35994 ft | 400 kts | 199° |
| 2026-05-07 12:41 | 40.06864 | -0.25693 | 35993 ft | 402 kts | 199° |
| 2026-05-07 12:41 | 40.01495 | -0.27795 | 35994 ft | 407 kts | 199° |
| 2026-05-07 12:42 | 39.96082 | -0.29905 | 35993 ft | 407 kts | 199° |
| 2026-05-07 12:42 | 39.90695 | -0.32002 | 35994 ft | 406 kts | 199° |
| 2026-05-07 12:43 | 39.85273 | -0.34111 | 35994 ft | 406 kts | 199° |
| 2026-05-07 12:43 | 39.79855 | -0.36216 | 35994 ft | 406 kts | 199° |
| 2026-05-07 12:44 | 39.74459 | -0.38309 | 35980 ft | 405 kts | 199° |
| 2026-05-07 12:44 | 39.71774 | -0.39348 | 35491 ft | 399 kts | 199° |
| 2026-05-07 12:44 | 39.69132 | -0.40370 | 34826 ft | 396 kts | 199° |
| 2026-05-07 12:45 | 39.66526 | -0.41379 | 34114 ft | 394 kts | 199° |
| 2026-05-07 12:45 | 39.63916 | -0.42387 | 33379 ft | 392 kts | 199° |
| 2026-05-07 12:45 | 39.61326 | -0.43387 | 32636 ft | 390 kts | 198° |
| 2026-05-07 12:45 | 39.58750 | -0.44382 | 31883 ft | 390 kts | 198° |
| 2026-05-07 12:46 | 39.56144 | -0.45387 | 31093 ft | 393 kts | 198° |
| 2026-05-07 12:46 | 39.53519 | -0.46399 | 30323 ft | 392 kts | 198° |
| 2026-05-07 12:46 | 39.50960 | -0.47383 | 29769 ft | 384 kts | 198° |
| 2026-05-07 12:46 | 39.48438 | -0.48351 | 29193 ft | 377 kts | 198° |
| 2026-05-07 12:47 | 39.45908 | -0.49282 | 28617 ft | 382 kts | 197° |
| 2026-05-07 12:47 | 39.43342 | -0.50185 | 28020 ft | 380 kts | 197° |
| 2026-05-07 12:47 | 39.40845 | -0.51066 | 27440 ft | 373 kts | 198° |
| 2026-05-07 12:47 | 39.38369 | -0.51949 | 26871 ft | 374 kts | 198° |
| 2026-05-07 12:48 | 39.35894 | -0.52834 | 26289 ft | 378 kts | 198° |
| 2026-05-07 12:48 | 39.33403 | -0.53719 | 25697 ft | 371 kts | 198° |
| 2026-05-07 12:48 | 39.30960 | -0.54586 | 25124 ft | 369 kts | 198° |
| 2026-05-07 12:48 | 39.28457 | -0.55478 | 24532 ft | 374 kts | 198° |
| 2026-05-07 12:49 | 39.25982 | -0.56357 | 23938 ft | 368 kts | 198° |
| 2026-05-07 12:49 | 39.23526 | -0.57228 | 23352 ft | 362 kts | 198° |
| 2026-05-07 12:49 | 39.21145 | -0.58072 | 22779 ft | 357 kts | 198° |
| 2026-05-07 12:49 | 39.18753 | -0.58923 | 22208 ft | 364 kts | 198° |
| 2026-05-07 12:50 | 39.16322 | -0.59785 | 21612 ft | 360 kts | 197° |
| 2026-05-07 12:50 | 39.13932 | -0.60630 | 21032 ft | 355 kts | 197° |
| 2026-05-07 12:50 | 39.11549 | -0.61474 | 20458 ft | 361 kts | 197° |
| 2026-05-07 12:50 | 39.09137 | -0.62328 | 19858 ft | 358 kts | 197° |
| 2026-05-07 12:51 | 39.06765 | -0.63166 | 19274 ft | 353 kts | 196° |
| 2026-05-07 12:51 | 39.04393 | -0.64004 | 18696 ft | 360 kts | 196° |
| 2026-05-07 12:51 | 39.01998 | -0.64850 | 18094 ft | 358 kts | 196° |
| 2026-05-07 12:51 | 38.99607 | -0.65693 | 17496 ft | 354 kts | 195° |
| 2026-05-07 12:52 | 38.97269 | -0.66516 | 16911 ft | 349 kts | 195° |
| 2026-05-07 12:52 | 38.94911 | -0.67347 | 16324 ft | 353 kts | 195° |
| 2026-05-07 12:52 | 38.92562 | -0.68173 | 15728 ft | 350 kts | 195° |
| 2026-05-07 12:52 | 38.90237 | -0.68991 | 15141 ft | 346 kts | 194° |
| 2026-05-07 12:53 | 38.87942 | -0.69798 | 14560 ft | 342 kts | 194° |
| 2026-05-07 12:53 | 38.85657 | -0.70592 | 13983 ft | 341 kts | 194° |
| 2026-05-07 12:53 | 38.83369 | -0.71379 | 13388 ft | 343 kts | 194° |
| 2026-05-07 12:53 | 38.81079 | -0.72178 | 12788 ft | 339 kts | 194° |
| 2026-05-07 12:54 | 38.78821 | -0.72985 | 12206 ft | 336 kts | 194° |
| 2026-05-07 12:54 | 38.76605 | -0.73769 | 11678 ft | 336 kts | 194° |
| 2026-05-07 12:54 | 38.74342 | -0.74558 | 11041 ft | 333 kts | 194° |
| 2026-05-07 12:54 | 38.72150 | -0.75326 | 10656 ft | 324 kts | 194° |
| 2026-05-07 12:55 | 38.70034 | -0.76072 | 10446 ft | 310 kts | 194° |
| 2026-05-07 12:55 | 38.67995 | -0.76786 | 10315 ft | 295 kts | 194° |
| 2026-05-07 12:55 | 38.66076 | -0.77457 | 10178 ft | 282 kts | 194° |
| 2026-05-07 12:55 | 38.64215 | -0.78107 | 9920 ft | 275 kts | 194° |
| 2026-05-07 12:56 | 38.62379 | -0.78747 | 9562 ft | 272 kts | 194° |
| 2026-05-07 12:56 | 38.60556 | -0.79383 | 9211 ft | 269 kts | 193° |
| 2026-05-07 12:56 | 38.58774 | -0.80004 | 8870 ft | 266 kts | 193° |
| 2026-05-07 12:56 | 38.57010 | -0.80618 | 8575 ft | 262 kts | 193° |
| 2026-05-07 12:57 | 38.55291 | -0.81217 | 8464 ft | 250 kts | 193° |
| 2026-05-07 12:57 | 38.53641 | -0.81797 | 8283 ft | 242 kts | 194° |
| 2026-05-07 12:57 | 38.52021 | -0.82392 | 7988 ft | 240 kts | 194° |
| 2026-05-07 12:57 | 38.50432 | -0.82976 | 7710 ft | 237 kts | 194° |
| 2026-05-07 12:58 | 38.48854 | -0.83555 | 7440 ft | 238 kts | 194° |
| 2026-05-07 12:58 | 38.47231 | -0.84149 | 7156 ft | 240 kts | 194° |
| 2026-05-07 12:58 | 38.45637 | -0.84735 | 6881 ft | 237 kts | 194° |
| 2026-05-07 12:58 | 38.44064 | -0.85311 | 6630 ft | 233 kts | 194° |
| 2026-05-07 12:59 | 38.42494 | -0.85885 | 6367 ft | 239 kts | 194° |
| 2026-05-07 12:59 | 38.40903 | -0.86469 | 6087 ft | 236 kts | 193° |
| 2026-05-07 12:59 | 38.39341 | -0.87040 | 5817 ft | 233 kts | 193° |
| 2026-05-07 12:59 | 38.37790 | -0.87608 | 5591 ft | 228 kts | 193° |
| 2026-05-07 13:00 | 38.36300 | -0.88153 | 5421 ft | 222 kts | 193° |
| 2026-05-07 13:00 | 38.34792 | -0.88544 | 5194 ft | 218 kts | 175° |
| 2026-05-07 13:00 | 38.33441 | -0.87939 | 5032 ft | 208 kts | 138° |
| 2026-05-07 13:00 | 38.32651 | -0.86439 | 4787 ft | 205 kts | 107° |
| 2026-05-07 13:01 | 38.32309 | -0.84687 | 4516 ft | 204 kts | 105° |
| 2026-05-07 13:01 | 38.31983 | -0.82921 | 4201 ft | 205 kts | 101° |
| 2026-05-07 13:01 | 38.31730 | -0.81149 | 3915 ft | 205 kts | 101° |
| 2026-05-07 13:01 | 38.31480 | -0.79352 | 3624 ft | 205 kts | 100° |
| 2026-05-07 13:02 | 38.31233 | -0.77562 | 3335 ft | 204 kts | 100° |
| 2026-05-07 13:02 | 38.30989 | -0.75793 | 3051 ft | 204 kts | 100° |
| 2026-05-07 13:02 | 38.30749 | -0.74046 | 2759 ft | 193 kts | 100° |
| 2026-05-07 13:02 | 38.30526 | -0.72432 | 2533 ft | 176 kts | 99° |
| 2026-05-07 13:03 | 38.30328 | -0.71000 | 2304 ft | 152 kts | 99° |
| 2026-05-07 13:03 | 38.30153 | -0.69736 | 2080 ft | 141 kts | 99° |
| 2026-05-07 13:03 | 38.29989 | -0.68547 | 1906 ft | 135 kts | 99° |
| 2026-05-07 13:03 | 38.29827 | -0.67386 | 1708 ft | 132 kts | 99° |
| 2026-05-07 13:04 | 38.29669 | -0.66244 | 1543 ft | 132 kts | 99° |
| 2026-05-07 13:04 | 38.29510 | -0.65094 | 1361 ft | 131 kts | 99° |
| 2026-05-07 13:04 | 38.29351 | -0.63945 | 1166 ft | 131 kts | 99° |
| 2026-05-07 13:04 | 38.29183 | -0.62807 | 1021 ft | 130 kts | 100° |
| 2026-05-07 13:05 | 38.29021 | -0.61667 | 887 ft | 131 kts | 98° |
| 2026-05-07 13:05 | 38.28872 | -0.60531 | 699 ft | 130 kts | 99° |
| 2026-05-07 13:05 | 38.28707 | -0.59400 | 484 ft | 128 kts | 98° |
| 2026-05-07 13:05 | 38.28563 | -0.58289 | 324 ft | 128 kts | 99° |
| 2026-05-07 13:06 | 38.28405 | -0.57181 | 156 ft | 128 kts | 98° |
| 2026-05-07 13:06 | 38.28276 | -0.56235 | 101 ft | 78 kts | 100° |
| 2026-05-07 13:06 | 38.28220 | -0.55814 | 93 ft | 26 kts | 94° |
| 2026-05-07 13:06 | 38.28228 | -0.55615 | 92 ft | 20 kts | 76° |
| 2026-05-07 13:07 | 38.28272 | -0.55445 | 88 ft | 22 kts | 70° |
| 2026-05-07 13:07 | 38.28333 | -0.55251 | 82 ft | 23 kts | 54° |
| 2026-05-07 13:07 | 38.28419 | -0.55085 | 73 ft | 20 kts | 77° |
| 2026-05-07 13:07 | 38.28458 | -0.54981 | 68 ft | 12 kts | 11° |
| 2026-05-07 13:08 | 38.28545 | -0.54984 | 67 ft | 11 kts | 312° |
| 2026-05-07 13:08 | 38.28569 | -0.55036 | 71 ft | 1 kts | 299° |
| 2026-05-07 13:08 | 38.28572 | -0.55042 | 71 ft | 0 kts | 298° |
| 2026-05-07 13:08 | 38.28573 | -0.55044 | 71 ft | 0 kts | 298° |
| 2026-05-07 13:09 | 38.28574 | -0.55047 | 71 ft | 0 kts | 298° |